createdAt,value
2023-05-05T00:01:58.006Z,62.31
2023-05-05T00:04:26.506Z,61.99
2023-05-05T00:06:55.082Z,61.71
2023-05-05T00:09:23.738Z,61.76
2023-05-05T00:11:52.348Z,61.68
2023-05-05T00:14:20.700Z,61.13
2023-05-05T00:16:49.314Z,61.27
2023-05-05T00:19:17.669Z,61.88
2023-05-05T00:21:46.258Z,61.14
2023-05-05T00:24:14.388Z,62.42
2023-05-05T00:26:42.782Z,61.92
2023-05-05T00:29:10.956Z,61.93
2023-05-05T00:31:39.502Z,61.94
2023-05-05T00:34:07.652Z,62.32
2023-05-05T00:36:36.102Z,61.69
2023-05-05T00:39:04.073Z,61.85
2023-05-05T00:41:32.502Z,61.89
2023-05-05T00:44:00.586Z,61.76
2023-05-05T00:46:31.058Z,62.08
2023-05-05T00:48:59.947Z,62.00
2023-05-05T00:51:29.263Z,61.89
2023-05-05T00:53:57.518Z,61.94
2023-05-05T00:56:27.607Z,62.94
2023-05-05T00:58:55.724Z,62.89
2023-05-05T01:01:24.309Z,63.43
2023-05-05T01:03:52.566Z,62.77
2023-05-05T01:06:58.974Z,62.70
2023-05-05T01:09:29.922Z,62.13
2023-05-05T01:12:22.518Z,62.62
2023-05-05T01:15:29.311Z,62.97
2023-05-05T01:18:04.635Z,63.26
2023-05-05T01:21:02.394Z,63.42
2023-05-05T01:24:00.752Z,63.18
2023-05-05T01:26:55.989Z,62.97
2023-05-05T01:30:09.497Z,63.61
2023-05-05T01:32:47.672Z,64.52
2023-05-05T01:35:21.651Z,64.36
2023-05-05T01:37:59.518Z,65.37
2023-05-05T01:40:32.653Z,65.33
2023-05-05T01:43:05.087Z,65.30
2023-05-05T01:45:38.609Z,65.41
2023-05-05T01:48:08.608Z,65.77
2023-05-05T01:50:37.764Z,65.53
2023-05-05T01:53:07.685Z,65.31
2023-05-05T01:55:37.510Z,66.16
2023-05-05T01:58:08.368Z,65.97
2023-05-05T02:00:37.639Z,65.57
2023-05-05T02:03:08.299Z,65.92
2023-05-05T02:05:40.065Z,66.67
2023-05-05T02:08:10.064Z,66.79
2023-05-05T02:10:43.089Z,65.75
2023-05-05T02:13:13.458Z,66.17
2023-05-05T02:15:44.459Z,66.21
2023-05-05T02:18:13.298Z,66.79
2023-05-05T02:20:41.873Z,66.93
2023-05-05T02:23:10.233Z,67.33
2023-05-05T02:25:45.635Z,67.16
2023-05-05T02:28:33.768Z,67.03
2023-05-05T02:31:06.232Z,66.98
2023-05-05T02:33:37.253Z,67.60
2023-05-05T02:36:28.614Z,67.52
2023-05-05T02:39:13.097Z,67.40
2023-05-05T02:41:45.456Z,66.49
2023-05-05T02:44:25.263Z,67.33
2023-05-05T02:46:55.203Z,67.58
2023-05-05T02:49:24.846Z,67.68
2023-05-05T02:51:58.738Z,68.12
2023-05-05T02:54:31.972Z,67.77
2023-05-05T02:57:02.044Z,67.98
2023-05-05T02:59:47.644Z,68.02
2023-05-05T03:02:25.129Z,68.36
2023-05-05T03:05:17.591Z,68.36
2023-05-05T03:07:59.941Z,67.81
2023-05-05T03:10:35.139Z,67.17
2023-05-05T03:13:10.249Z,67.30
2023-05-05T03:15:48.645Z,67.23
2023-05-05T03:18:22.816Z,67.06
2023-05-05T03:20:57.683Z,68.14
2023-05-05T03:23:26.650Z,67.77
2023-05-05T03:26:00.128Z,67.22
2023-05-05T03:28:39.607Z,66.91
2023-05-05T03:31:22.318Z,66.94
2023-05-05T03:33:55.452Z,68.22
2023-05-05T03:36:29.424Z,68.13
2023-05-05T03:39:00.249Z,68.06
2023-05-05T03:41:32.079Z,68.38
2023-05-05T03:44:01.332Z,69.02
2023-05-05T03:46:29.404Z,68.07
2023-05-05T03:48:57.801Z,68.18
2023-05-05T03:51:28.443Z,67.64
2023-05-05T03:53:57.852Z,67.63
2023-05-05T03:56:25.931Z,68.78
2023-05-05T03:58:54.289Z,67.78
2023-05-05T04:01:22.342Z,67.82
2023-05-05T04:03:50.895Z,67.56
2023-05-05T04:06:18.936Z,68.18
2023-05-05T04:08:47.788Z,68.09
2023-05-05T04:11:16.487Z,68.25
2023-05-05T04:13:44.967Z,67.36
2023-05-05T04:16:13.495Z,67.34
2023-05-05T04:18:42.015Z,67.04
2023-05-05T04:21:10.718Z,67.57
2023-05-05T04:23:40.756Z,67.95
2023-05-05T04:26:08.824Z,67.70
2023-05-05T04:28:37.776Z,67.81
2023-05-05T04:31:06.280Z,67.75
2023-05-05T04:33:38.220Z,67.91
2023-05-05T04:36:07.210Z,67.47
2023-05-05T04:38:35.787Z,67.40
2023-05-05T04:41:06.702Z,67.29
2023-05-05T04:43:36.516Z,66.57
2023-05-05T04:46:04.708Z,66.39
2023-05-05T04:48:38.165Z,66.03
2023-05-05T04:51:07.164Z,65.99
2023-05-05T04:53:36.322Z,66.49
2023-05-05T04:56:04.513Z,66.02
2023-05-05T04:58:33.475Z,65.80
2023-05-05T05:01:01.442Z,65.58
2023-05-05T05:03:29.928Z,65.66
2023-05-05T05:05:58.003Z,65.99
2023-05-05T05:08:26.493Z,66.13
2023-05-05T05:10:54.461Z,65.99
2023-05-05T05:13:22.995Z,66.00
2023-05-05T05:15:52.204Z,65.81
2023-05-05T05:18:20.541Z,64.48
2023-05-05T05:20:50.391Z,65.07
2023-05-05T05:23:19.947Z,64.06
2023-05-05T05:25:48.494Z,64.05
2023-05-05T05:28:19.728Z,63.78
2023-05-05T05:30:52.948Z,63.60
2023-05-05T05:33:21.690Z,64.61
2023-05-05T05:35:50.583Z,64.72
2023-05-05T05:38:21.417Z,65.39
2023-05-05T05:40:52.431Z,63.42
2023-05-05T05:43:21.451Z,62.77
2023-05-05T05:45:49.813Z,63.27
2023-05-05T05:48:18.610Z,62.51
2023-05-05T05:50:46.759Z,62.02
2023-05-05T05:53:15.633Z,61.69
2023-05-05T05:55:46.688Z,60.12
2023-05-05T05:58:17.620Z,60.36
2023-05-05T06:00:46.870Z,58.92
2023-05-05T06:03:15.513Z,57.03
2023-05-05T06:05:46.622Z,56.02
2023-05-05T06:08:16.122Z,55.48
2023-05-05T06:10:49.010Z,54.96
2023-05-05T06:13:20.571Z,55.01
2023-05-05T06:15:51.379Z,55.93
2023-05-05T06:18:19.909Z,55.79
2023-05-05T06:20:51.260Z,56.85
2023-05-05T06:23:21.480Z,55.70
2023-05-05T06:25:55.839Z,55.38
2023-05-05T06:28:24.275Z,54.88
2023-05-05T06:30:52.885Z,55.04
2023-05-05T06:33:21.250Z,55.17
2023-05-05T06:35:49.745Z,53.97
2023-05-05T06:38:18.082Z,53.98
2023-05-05T06:40:49.728Z,55.65
2023-05-05T06:43:18.518Z,53.82
2023-05-05T06:45:53.827Z,55.70
2023-05-05T06:48:22.419Z,56.95
2023-05-05T06:50:50.450Z,55.21
2023-05-05T06:53:18.821Z,57.19
2023-05-05T06:55:47.664Z,55.96
2023-05-05T06:58:16.025Z,56.07
2023-05-05T07:00:44.145Z,56.45
2023-05-05T07:03:12.607Z,56.26
2023-05-05T07:05:40.661Z,56.55
2023-05-05T07:08:11.560Z,57.14
2023-05-05T07:10:39.698Z,57.02
2023-05-05T07:13:08.672Z,54.71
2023-05-05T07:15:36.818Z,53.40
2023-05-05T07:18:05.376Z,51.60
2023-05-05T07:20:33.484Z,52.12
2023-05-05T07:23:01.777Z,52.92
2023-05-05T07:25:29.763Z,54.34
2023-05-05T07:27:58.633Z,54.00
2023-05-05T07:30:26.867Z,54.58
2023-05-05T07:32:55.561Z,52.84
2023-05-05T07:35:23.824Z,53.68
2023-05-05T07:37:52.323Z,53.11
2023-05-05T07:40:20.775Z,52.48
2023-05-05T07:42:49.090Z,52.29
2023-05-05T07:45:17.074Z,52.74
2023-05-05T07:47:45.464Z,53.82
2023-05-05T07:50:13.719Z,53.50
2023-05-05T07:52:48.385Z,52.61
2023-05-05T07:55:19.899Z,52.33
2023-05-05T07:57:49.845Z,52.46
2023-05-05T08:00:19.691Z,52.26
2023-05-05T08:02:48.823Z,51.60
2023-05-05T08:05:17.098Z,52.27
2023-05-05T08:07:45.655Z,51.43
2023-05-05T08:10:13.808Z,51.77
2023-05-05T08:12:42.757Z,50.37
2023-05-05T08:15:11.204Z,49.48
2023-05-05T08:17:48.163Z,50.21
2023-05-05T08:20:18.190Z,50.06
2023-05-05T08:22:48.422Z,51.08
2023-05-05T08:25:16.458Z,51.00
2023-05-05T08:27:45.053Z,49.37
2023-05-05T08:30:13.576Z,48.11
2023-05-05T08:32:41.976Z,47.84
2023-05-05T08:35:10.399Z,48.40
2023-05-05T08:37:38.958Z,49.69
2023-05-05T08:40:07.682Z,50.33
2023-05-05T08:42:38.487Z,47.90
2023-05-05T08:45:09.474Z,47.18
2023-05-05T08:47:39.390Z,47.44
2023-05-05T08:50:11.180Z,48.82
2023-05-05T08:52:44.674Z,47.37
2023-05-05T08:55:14.863Z,45.63
2023-05-05T08:58:05.405Z,45.29
2023-05-05T09:00:34.024Z,45.37
2023-05-05T09:03:02.792Z,44.91
2023-05-05T09:05:30.887Z,44.78
2023-05-05T09:07:59.258Z,42.98
2023-05-05T09:10:31.514Z,42.95
2023-05-05T09:13:01.270Z,41.46
2023-05-05T09:15:29.243Z,41.75
2023-05-05T09:18:00.824Z,40.70
2023-05-05T09:20:37.208Z,39.13
2023-05-05T09:23:19.870Z,38.80
2023-05-05T09:26:02.782Z,40.29
2023-05-05T09:28:32.080Z,42.16
2023-05-05T09:31:14.252Z,39.51
2023-05-05T09:33:43.514Z,39.27
2023-05-05T09:36:12.449Z,38.02
2023-05-05T09:38:40.748Z,38.50
2023-05-05T09:41:08.699Z,38.86
2023-05-05T09:43:52.133Z,38.32
2023-05-05T09:46:20.280Z,39.75
2023-05-05T09:48:48.633Z,39.22
2023-05-05T09:51:16.754Z,37.18
2023-05-05T09:53:45.289Z,39.24
2023-05-05T09:56:13.257Z,38.49
2023-05-05T09:58:42.519Z,38.29
2023-05-05T10:01:23.092Z,38.26
2023-05-05T10:03:54.917Z,38.78
2023-05-05T10:06:41.326Z,38.59
2023-05-05T10:09:10.007Z,37.90
2023-05-05T10:11:40.045Z,38.55
2023-05-05T10:14:08.982Z,38.25
2023-05-05T10:16:43.349Z,36.74
2023-05-05T10:19:14.506Z,36.75
2023-05-05T10:21:49.719Z,36.15
2023-05-05T10:24:24.985Z,37.55
2023-05-05T10:26:56.295Z,37.05
2023-05-05T10:29:37.040Z,37.13
2023-05-05T10:32:30.181Z,37.08
2023-05-05T10:35:01.814Z,36.53
2023-05-05T10:37:30.814Z,36.06
2023-05-05T10:39:59.502Z,36.78
2023-05-05T10:42:28.010Z,37.36
2023-05-05T10:44:56.725Z,36.82
2023-05-05T10:47:26.016Z,37.15
2023-05-05T10:50:07.811Z,36.18
2023-05-05T10:52:44.633Z,37.49
2023-05-05T10:55:24.663Z,35.92
2023-05-05T10:57:54.304Z,36.43
2023-05-05T11:00:41.260Z,36.92
2023-05-05T11:03:18.459Z,36.18
2023-05-05T11:06:04.913Z,36.23
2023-05-05T11:08:45.809Z,35.41
2023-05-05T11:11:14.457Z,37.54
2023-05-05T11:13:42.658Z,37.83
2023-05-05T11:16:44.967Z,35.38
2023-05-05T11:19:43.697Z,33.23
2023-05-05T11:22:12.434Z,35.09
2023-05-05T11:24:40.906Z,35.60
2023-05-05T11:27:10.451Z,33.66
2023-05-05T11:30:07.588Z,35.24
2023-05-05T11:32:36.405Z,35.02
2023-05-05T11:35:06.408Z,33.82
2023-05-05T11:37:37.488Z,34.36
2023-05-05T11:40:32.820Z,34.71
2023-05-05T11:43:07.669Z,34.80
2023-05-05T11:45:36.140Z,34.50
2023-05-05T11:48:30.100Z,32.30
2023-05-05T11:50:58.367Z,33.14
2023-05-05T11:53:27.723Z,34.62
2023-05-05T11:56:09.796Z,34.56
2023-05-05T11:58:38.489Z,33.58
2023-05-05T12:01:09.547Z,31.79
2023-05-05T12:03:39.451Z,30.76
2023-05-05T12:06:08.365Z,32.21
2023-05-05T12:08:41.124Z,31.26
2023-05-05T12:11:10.854Z,30.39
2023-05-05T12:13:39.061Z,29.87
2023-05-05T12:16:11.270Z,29.79
2023-05-05T12:18:40.198Z,31.12
2023-05-05T12:21:21.075Z,30.26
2023-05-05T12:23:49.291Z,31.17
2023-05-05T12:26:28.260Z,31.58
2023-05-05T12:29:00.583Z,32.93
2023-05-05T12:31:39.660Z,32.18
2023-05-05T12:34:10.053Z,32.38
2023-05-05T12:36:38.638Z,33.44
2023-05-05T12:39:06.952Z,33.92
2023-05-05T12:41:35.244Z,33.07
2023-05-05T12:44:04.219Z,33.01
2023-05-05T12:46:48.916Z,32.26
2023-05-05T12:49:17.802Z,31.01
2023-05-05T12:51:56.736Z,29.60
2023-05-05T12:54:25.289Z,29.08
2023-05-05T12:56:53.227Z,30.05
2023-05-05T12:59:21.745Z,31.10
2023-05-05T13:01:54.177Z,31.85
2023-05-05T13:04:24.349Z,31.38
2023-05-05T13:07:18.111Z,33.20
2023-05-05T13:09:48.249Z,32.90
2023-05-05T13:12:18.105Z,31.92
2023-05-05T13:14:47.250Z,32.28
2023-05-05T13:17:15.285Z,30.88
2023-05-05T13:19:46.632Z,31.50
2023-05-05T13:22:14.719Z,30.29
2023-05-05T13:24:51.706Z,28.87
2023-05-05T13:27:20.842Z,29.65
2023-05-05T13:29:49.183Z,30.51
2023-05-05T13:32:17.066Z,31.40
2023-05-05T13:34:45.307Z,32.41
2023-05-05T13:37:13.123Z,31.17
2023-05-05T13:39:41.415Z,33.87
2023-05-05T13:42:09.383Z,34.22
2023-05-05T13:44:37.614Z,33.00
2023-05-05T13:47:05.797Z,32.93
2023-05-05T13:49:35.391Z,32.52
2023-05-05T13:52:03.421Z,31.58
2023-05-05T13:54:31.868Z,31.97
2023-05-05T13:57:00.225Z,31.74
2023-05-05T13:59:28.738Z,31.06
2023-05-05T14:01:56.619Z,30.35
2023-05-05T14:04:25.230Z,32.39
2023-05-05T14:06:54.206Z,32.72
2023-05-05T14:09:22.555Z,32.20
2023-05-05T14:11:50.427Z,32.75
2023-05-05T14:14:19.912Z,31.42
2023-05-05T14:16:49.993Z,30.32
2023-05-05T14:19:18.874Z,29.38
2023-05-05T14:21:46.833Z,30.75
2023-05-05T14:24:15.161Z,32.04
2023-05-05T14:26:43.085Z,31.66
2023-05-05T14:29:11.397Z,29.75
2023-05-05T14:31:39.312Z,29.97
2023-05-05T14:34:07.585Z,29.93
2023-05-05T14:36:35.517Z,29.89
2023-05-05T14:39:03.873Z,29.35
2023-05-05T14:41:31.785Z,29.05
2023-05-05T14:43:59.997Z,29.37
2023-05-05T14:46:28.122Z,30.24
2023-05-05T14:48:56.442Z,29.63
2023-05-05T14:51:25.128Z,29.78
2023-05-05T14:53:53.020Z,28.25
2023-05-05T14:56:24.772Z,28.30
2023-05-05T14:58:53.191Z,28.78
2023-05-05T15:01:21.471Z,29.13
2023-05-05T15:03:49.498Z,28.88
2023-05-05T15:06:17.726Z,28.32
2023-05-05T15:08:45.695Z,29.39
2023-05-05T15:11:14.030Z,29.46
2023-05-05T15:13:41.944Z,29.20
2023-05-05T15:16:10.568Z,28.63
2023-05-05T15:18:38.589Z,30.47
2023-05-05T15:21:07.315Z,31.20
2023-05-05T15:23:35.266Z,30.96
2023-05-05T15:26:04.890Z,29.00
2023-05-05T15:28:32.770Z,29.88
2023-05-05T15:31:02.349Z,29.36
2023-05-05T15:33:31.257Z,31.31
2023-05-05T15:36:00.591Z,29.47
2023-05-05T15:38:30.012Z,29.61
2023-05-05T15:40:58.326Z,29.29
2023-05-05T15:43:26.295Z,29.02
2023-05-05T15:45:54.740Z,28.70
2023-05-05T15:48:22.636Z,28.88
2023-05-05T15:50:50.791Z,28.67
2023-05-05T15:53:18.718Z,27.97
2023-05-05T15:55:47.018Z,29.33
2023-05-05T15:58:14.960Z,30.43
2023-05-05T16:00:43.204Z,30.55
2023-05-05T16:03:11.175Z,31.92
2023-05-05T16:05:39.422Z,32.51
2023-05-05T16:08:10.357Z,32.22
2023-05-05T16:10:38.727Z,32.26
2023-05-05T16:13:07.048Z,31.61
2023-05-05T16:15:36.054Z,31.84
2023-05-05T16:18:04.143Z,31.19
2023-05-05T16:20:32.498Z,30.75
2023-05-05T16:23:00.547Z,30.37
2023-05-05T16:25:28.843Z,29.95
2023-05-05T16:27:57.845Z,30.39
2023-05-05T16:30:26.238Z,30.27
2023-05-05T16:32:54.845Z,29.99
2023-05-05T16:35:23.331Z,31.14
2023-05-05T16:37:51.408Z,31.39
2023-05-05T16:40:19.920Z,32.45
2023-05-05T16:42:47.759Z,32.23
2023-05-05T16:45:16.245Z,32.44
2023-05-05T16:47:44.121Z,31.94
2023-05-05T16:50:12.726Z,31.47
2023-05-05T16:52:40.791Z,31.75
2023-05-05T16:55:09.716Z,31.27
2023-05-05T16:57:37.792Z,30.88
2023-05-05T17:00:07.560Z,30.95
2023-05-05T17:02:36.154Z,31.85
2023-05-05T17:05:05.222Z,32.78
2023-05-05T17:07:33.199Z,31.98
2023-05-05T17:10:01.902Z,33.32
2023-05-05T17:12:29.808Z,33.27
2023-05-05T17:14:58.001Z,34.37
2023-05-05T17:17:26.093Z,33.64
2023-05-05T17:19:54.396Z,33.98
2023-05-05T17:22:22.447Z,34.34
2023-05-05T17:24:51.143Z,34.38
2023-05-05T17:27:19.178Z,35.23
2023-05-05T17:29:47.330Z,34.86
2023-05-05T17:32:15.239Z,34.32
2023-05-05T17:34:43.506Z,33.93
2023-05-05T17:37:11.560Z,34.10
2023-05-05T17:39:39.772Z,34.17
2023-05-05T17:42:07.801Z,34.35
2023-05-05T17:44:35.951Z,35.12
2023-05-05T17:47:04.153Z,35.31
2023-05-05T17:49:32.644Z,35.15
2023-05-05T17:52:00.855Z,35.32
2023-05-05T17:54:29.179Z,35.74
2023-05-05T17:56:57.594Z,35.87
2023-05-05T17:59:26.396Z,36.47
2023-05-05T18:01:54.293Z,36.86
2023-05-05T18:04:22.533Z,37.16
2023-05-05T18:06:50.465Z,36.83
2023-05-05T18:09:20.853Z,36.96
2023-05-05T18:11:49.124Z,36.93
2023-05-05T18:14:18.752Z,37.38
2023-05-05T18:16:49.962Z,37.15
2023-05-05T18:19:23.454Z,37.00
2023-05-05T18:21:54.657Z,37.43
2023-05-05T18:24:23.322Z,37.35
2023-05-05T18:26:52.854Z,37.84
2023-05-05T18:29:22.362Z,37.95
2023-05-05T18:31:53.211Z,38.08
2023-05-05T18:34:22.009Z,38.17
2023-05-05T18:36:51.572Z,38.56
2023-05-05T18:39:20.444Z,38.77
2023-05-05T18:41:48.373Z,39.26
2023-05-05T18:44:16.860Z,39.52
2023-05-05T18:46:47.059Z,39.48
2023-05-05T18:49:15.741Z,40.31
2023-05-05T18:51:44.038Z,40.59
2023-05-05T18:54:12.534Z,40.37
2023-05-05T18:56:40.457Z,41.04
2023-05-05T18:59:10.057Z,40.69
2023-05-05T19:01:38.209Z,40.74
2023-05-05T19:04:15.609Z,40.96
2023-05-05T19:06:52.526Z,40.96
2023-05-05T19:09:21.070Z,41.38
2023-05-05T19:11:49.275Z,41.64
2023-05-05T19:14:18.726Z,41.62
2023-05-05T19:16:47.943Z,41.77
2023-05-05T19:19:18.139Z,42.03
2023-05-05T19:21:47.271Z,41.94
2023-05-05T19:24:16.801Z,42.39
2023-05-05T19:26:44.981Z,42.32
2023-05-05T19:29:14.296Z,42.82
2023-05-05T19:31:43.498Z,42.95
2023-05-05T19:34:13.170Z,42.96
2023-05-05T19:36:42.256Z,42.68
2023-05-05T19:39:13.694Z,42.58
2023-05-05T19:41:45.597Z,42.49
2023-05-05T19:44:15.266Z,43.09
2023-05-05T19:46:44.504Z,43.48
2023-05-05T19:49:14.046Z,42.68
2023-05-05T19:51:42.919Z,43.54
2023-05-05T19:54:11.844Z,42.85
2023-05-05T19:56:40.605Z,43.52
2023-05-05T19:59:09.463Z,43.83
2023-05-05T20:01:37.465Z,43.56
2023-05-05T20:04:05.811Z,43.83
2023-05-05T20:06:33.978Z,43.06
2023-05-05T20:09:02.479Z,43.64
2023-05-05T20:11:30.674Z,43.74
2023-05-05T20:13:59.489Z,44.12
2023-05-05T20:16:27.609Z,45.11
2023-05-05T20:18:56.322Z,44.37
2023-05-05T20:21:24.303Z,45.07
2023-05-05T20:23:54.928Z,45.43
2023-05-05T20:26:24.748Z,44.59
2023-05-05T20:28:53.249Z,45.69
2023-05-05T20:31:21.295Z,44.76
2023-05-05T20:33:50.059Z,45.63
2023-05-05T20:36:18.710Z,45.97
2023-05-05T20:38:47.056Z,45.65
2023-05-05T20:41:15.131Z,45.53
2023-05-05T20:43:43.666Z,45.81
2023-05-05T20:46:13.032Z,46.08
2023-05-05T20:48:42.925Z,46.54
2023-05-05T20:51:11.530Z,46.94
2023-05-05T20:53:40.000Z,47.14
2023-05-05T20:56:08.952Z,47.57
2023-05-05T20:58:37.949Z,47.00
2023-05-05T21:01:06.275Z,46.75
2023-05-05T21:03:36.618Z,46.71
2023-05-05T21:06:04.706Z,47.04
2023-05-05T21:08:33.176Z,47.68
2023-05-05T21:11:01.130Z,47.28
2023-05-05T21:13:29.505Z,47.67
2023-05-05T21:15:57.520Z,47.57
2023-05-05T21:18:27.906Z,47.34
2023-05-05T21:20:56.459Z,47.95
2023-05-05T21:23:24.967Z,48.68
2023-05-05T21:25:52.878Z,48.70
2023-05-05T21:28:21.242Z,48.99
2023-05-05T21:31:10.346Z,48.82
2023-05-05T21:33:40.172Z,49.39
2023-05-05T21:36:08.490Z,49.49
2023-05-05T21:38:36.849Z,49.12
2023-05-05T21:41:04.805Z,49.18
2023-05-05T21:43:33.470Z,49.64
2023-05-05T21:46:05.605Z,49.25
2023-05-05T21:48:34.165Z,48.86
2023-05-05T21:51:02.147Z,49.81
2023-05-05T21:53:31.100Z,50.62
2023-05-05T21:55:59.244Z,51.11
2023-05-05T21:58:27.836Z,51.44
2023-05-05T22:00:55.848Z,51.18
2023-05-05T22:03:24.446Z,51.70
2023-05-05T22:05:52.599Z,51.39
2023-05-05T22:08:20.951Z,51.69
2023-05-05T22:10:48.868Z,52.57
2023-05-05T22:13:17.403Z,52.97
2023-05-05T22:15:47.397Z,53.25
2023-05-05T22:18:16.394Z,53.39
2023-05-05T22:20:44.559Z,53.33
2023-05-05T22:23:14.438Z,53.15
2023-05-05T22:25:42.477Z,53.49
2023-05-05T22:28:11.761Z,53.31
2023-05-05T22:30:39.802Z,54.33
2023-05-05T22:33:08.260Z,54.37
2023-05-05T22:35:37.591Z,54.55
2023-05-05T22:38:06.636Z,54.34
2023-05-05T22:40:35.668Z,54.53
2023-05-05T22:43:04.094Z,54.71
2023-05-05T22:45:32.049Z,54.67
2023-05-05T22:48:01.029Z,54.38
2023-05-05T22:50:29.181Z,54.09
2023-05-05T22:52:57.489Z,54.76
2023-05-05T22:55:25.474Z,54.81
2023-05-05T22:57:53.982Z,54.98
2023-05-05T23:00:21.941Z,54.83
2023-05-05T23:02:50.347Z,54.53
2023-05-05T23:05:18.328Z,54.19
2023-05-05T23:07:46.626Z,54.30
2023-05-05T23:10:14.588Z,54.61
2023-05-05T23:12:43.203Z,54.48
2023-05-05T23:15:11.665Z,55.72
2023-05-05T23:17:40.293Z,54.90
2023-05-05T23:20:12.011Z,54.00
2023-05-05T23:22:40.290Z,54.20
2023-05-05T23:25:08.854Z,54.63
2023-05-05T23:27:40.377Z,55.49
2023-05-05T23:30:09.485Z,55.61
2023-05-05T23:32:38.056Z,54.74
2023-05-05T23:35:06.522Z,55.82
2023-05-05T23:37:34.794Z,56.15
2023-05-05T23:40:02.762Z,55.44
2023-05-05T23:42:30.925Z,55.15
2023-05-05T23:44:58.877Z,55.72
2023-05-05T23:47:27.206Z,56.28
2023-05-05T23:49:55.174Z,56.09
2023-05-05T23:52:23.702Z,56.46
2023-05-05T23:54:51.639Z,55.70
2023-05-05T23:57:19.860Z,56.13
2023-05-05T23:59:47.941Z,56.06
